Time;durP1;ratioP1;P1;durP2;ratioP2;P2;SDS_P1;SDS_P2;PMS_P1;PMS_P2;Temp;Humidity;BMP_temperature;BMP_pressure;BME280_temperature;BME280_humidity;BME280_pressure;Samples;Min_cycle;Max_cycle;Signal;HPM_P1;HPM_P2
2023/04/10 00:01:50;;;;;;;42.90;31.40;;;8.70;99.90;;;;;;5001860;28;20408;-60
2023/04/10 00:04:15;;;;;;;46.92;33.70;;;8.80;99.90;;;;;;4983104;28;20046;-60
2023/04/10 00:06:41;;;;;;;49.55;33.03;;;8.70;99.90;;;;;;5002582;28;20042;-60
2023/04/10 00:09:08;;;;;;;50.72;34.25;;;8.70;99.90;;;;;;5008136;28;20045;-60
2023/04/10 00:11:34;;;;;;;48.95;33.20;;;8.70;99.90;;;;;;5007578;28;20045;-60
2023/04/10 00:14:00;;;;;;;44.90;31.88;;;8.60;99.90;;;;;;5010500;28;20038;-60
2023/04/10 00:16:25;;;;;;;46.92;32.67;;;8.60;99.90;;;;;;5003912;28;20087;-59
2023/04/10 00:18:51;;;;;;;50.28;33.50;;;8.60;99.90;;;;;;4987642;28;20037;-60
2023/04/10 00:21:17;;;;;;;45.53;32.45;;;8.60;99.90;;;;;;5005805;28;20045;-61
2023/04/10 00:23:42;;;;;;;50.33;34.60;;;8.60;99.90;;;;;;5013933;28;20116;-58
2023/04/10 00:26:09;;;;;;;48.72;34.17;;;8.50;99.90;;;;;;5008601;28;20034;-61
2023/04/10 00:28:38;;;;;;;48.83;32.90;;;8.50;99.90;;;;;;5006648;28;20042;-59
2023/04/10 00:31:04;;;;;;;45.38;30.85;;;8.50;99.90;;;;;;5012188;28;20556;-59
2023/04/10 00:33:30;;;;;;;44.95;32.28;;;8.40;99.90;;;;;;5008637;28;20040;-61
2023/04/10 00:35:55;;;;;;;48.88;32.78;;;8.40;99.90;;;;;;5003044;28;20038;-60
2023/04/10 00:38:21;;;;;;;47.85;33.35;;;8.40;99.90;;;;;;5013141;28;20053;-60
2023/04/10 00:40:47;;;;;;;52.63;33.35;;;8.40;99.90;;;;;;4984725;28;20513;-60
2023/04/10 00:43:13;;;;;;;43.83;32.13;;;8.30;99.90;;;;;;5003909;28;20044;-60
2023/04/10 00:45:39;;;;;;;50.28;34.42;;;8.30;99.90;;;;;;5009143;28;20050;-60
2023/04/10 00:48:05;;;;;;;49.70;33.50;;;8.30;99.90;;;;;;5005938;28;20477;-59
2023/04/10 00:50:31;;;;;;;45.35;33.67;;;8.30;99.90;;;;;;4990076;28;20073;-59
2023/04/10 00:52:58;;;;;;;45.90;33.50;;;8.30;99.90;;;;;;4997634;28;20145;-60
2023/04/10 00:55:25;;;;;;;48.83;33.75;;;8.30;99.90;;;;;;5005225;28;20034;-60
2023/04/10 00:57:51;;;;;;;46.03;32.05;;;8.30;99.90;;;;;;4993051;28;20049;-60
2023/04/10 01:00:17;;;;;;;47.97;33.00;;;8.30;99.90;;;;;;5007043;28;20038;-60
2023/04/10 01:02:42;;;;;;;46.58;33.05;;;8.30;99.90;;;;;;5007656;28;20111;-60
2023/04/10 01:05:11;;;;;;;49.33;34.30;;;8.30;99.90;;;;;;5008503;28;20044;-60
2023/04/10 01:07:58;;;;;;;48.60;31.50;;;8.20;99.90;;;;;;5007880;28;20100;-60
2023/04/10 01:10:47;;;;;;;50.25;32.33;;;8.30;99.90;;;;;;5007432;28;20030;-60
2023/04/10 01:13:30;;;;;;;44.67;32.22;;;8.20;99.90;;;;;;5006698;28;20073;-59
2023/04/10 01:16:23;;;;;;;48.42;32.40;;;8.20;99.90;;;;;;5015872;28;20073;-61
2023/04/10 01:19:39;;;;;;;44.20;31.90;;;8.10;99.90;;;;;;5005471;28;20056;-57
2023/04/10 01:22:10;;;;;;;44.70;33.17;;;8.10;99.90;;;;;;4995994;28;20046;-60
2023/04/10 01:24:54;;;;;;;46.80;33.30;;;8.10;99.90;;;;;;5014276;28;20046;-61
2023/04/10 01:27:54;;;;;;;46.25;33.17;;;8.00;99.90;;;;;;5007637;28;20113;-59
2023/04/10 01:30:22;;;;;;;46.72;32.13;;;8.00;99.90;;;;;;5006466;28;20061;-59
2023/04/10 01:32:51;;;;;;;46.72;31.40;;;8.00;99.90;;;;;;5010751;28;20069;-60
2023/04/10 01:35:17;;;;;;;47.95;33.80;;;8.00;99.90;;;;;;5008200;28;20456;-59
2023/04/10 01:37:46;;;;;;;47.20;32.55;;;7.90;99.90;;;;;;5010867;28;20048;-58
2023/04/10 01:40:15;;;;;;;45.70;31.98;;;7.90;99.90;;;;;;5007893;28;20049;-60
2023/04/10 01:42:48;;;;;;;45.63;32.03;;;7.90;99.90;;;;;;5007118;28;20053;-58
2023/04/10 01:45:20;;;;;;;45.00;31.25;;;7.90;99.90;;;;;;5005392;28;20061;-60
2023/04/10 01:47:47;;;;;;;45.35;31.60;;;7.90;99.90;;;;;;5006200;28;20056;-59
2023/04/10 01:50:14;;;;;;;47.45;32.20;;;7.80;99.90;;;;;;5004912;28;20050;-60
2023/04/10 01:52:41;;;;;;;43.40;30.80;;;7.80;99.90;;;;;;4991496;28;20037;-58
2023/04/10 01:55:08;;;;;;;46.78;32.70;;;7.80;99.90;;;;;;5006763;28;20104;-59
2023/04/10 01:57:35;;;;;;;44.28;31.38;;;7.80;99.90;;;;;;5011707;28;20037;-60
2023/04/10 02:00:02;;;;;;;43.20;29.60;;;7.80;99.90;;;;;;5012755;28;20041;-56
2023/04/10 02:02:34;;;;;;;44.65;32.33;;;7.80;99.90;;;;;;5002979;28;20596;-61
2023/04/10 02:05:00;;;;;;;46.47;31.95;;;7.80;99.90;;;;;;5009399;28;20058;-60
2023/04/10 02:07:35;;;;;;;46.83;31.98;;;7.80;99.90;;;;;;5009638;28;20046;-60
2023/04/10 02:10:25;;;;;;;50.13;33.50;;;7.70;99.90;;;;;;5007057;28;20088;-60
2023/04/10 02:13:05;;;;;;;45.85;31.48;;;7.70;99.90;;;;;;5005724;28;20133;-60
2023/04/10 02:15:33;;;;;;;38.17;28.88;;;7.70;99.90;;;;;;4991205;28;20042;-61
2023/04/10 02:18:03;;;;;;;45.95;31.88;;;7.70;99.90;;;;;;5009051;28;20564;-59
2023/04/10 02:20:30;;;;;;;45.10;32.10;;;7.60;99.90;;;;;;5005046;28;20058;-59
2023/04/10 02:23:01;;;;;;;47.28;32.70;;;7.60;99.90;;;;;;5006194;28;20049;-58
2023/04/10 02:25:29;;;;;;;47.65;33.10;;;7.60;99.90;;;;;;5008695;28;20064;-59
2023/04/10 02:27:55;;;;;;;52.42;34.67;;;7.60;99.90;;;;;;5004340;28;20054;-59
2023/04/10 02:30:21;;;;;;;45.85;32.08;;;7.60;99.90;;;;;;5007641;28;20087;-59
2023/04/10 02:32:47;;;;;;;48.88;33.03;;;7.60;99.90;;;;;;5000086;28;20155;-59
2023/04/10 02:35:13;;;;;;;46.58;32.08;;;7.60;99.90;;;;;;5009666;28;20042;-59
2023/04/10 02:37:38;;;;;;;47.10;32.45;;;7.50;99.90;;;;;;4992177;28;20056;-59
2023/04/10 02:40:05;;;;;;;46.88;30.95;;;7.50;99.90;;;;;;5008053;28;20046;-60
2023/04/10 02:42:30;;;;;;;44.15;30.58;;;7.50;99.90;;;;;;4989768;28;20045;-59
2023/04/10 02:44:56;;;;;;;44.85;32.22;;;7.50;99.90;;;;;;4990799;28;20045;-61
2023/04/10 02:47:22;;;;;;;45.28;31.27;;;7.50;99.90;;;;;;5007890;28;20053;-60
2023/04/10 02:49:48;;;;;;;48.20;31.88;;;7.50;99.90;;;;;;4991691;28;20037;-60
2023/04/10 02:52:14;;;;;;;47.78;33.08;;;7.50;99.90;;;;;;5007608;28;20036;-60
2023/04/10 02:54:39;;;;;;;47.70;32.22;;;7.50;99.90;;;;;;5002056;28;20051;-58
2023/04/10 02:57:05;;;;;;;45.83;33.20;;;7.40;99.90;;;;;;5002687;28;20040;-61
2023/04/10 02:59:32;;;;;;;45.53;32.50;;;7.40;99.90;;;;;;5007641;28;20096;-61
2023/04/10 03:01:57;;;;;;;49.00;33.03;;;7.40;99.90;;;;;;5008896;28;20029;-59
2023/04/10 03:04:23;;;;;;;48.83;34.45;;;7.40;99.90;;;;;;5009062;28;20042;-60
2023/04/10 03:06:49;;;;;;;49.88;33.70;;;7.40;99.90;;;;;;5006396;28;20041;-58
2023/04/10 03:09:14;;;;;;;48.53;33.53;;;7.40;99.90;;;;;;5007889;28;20045;-58
2023/04/10 03:11:40;;;;;;;46.28;33.88;;;7.40;99.90;;;;;;5005209;28;20091;-57
2023/04/10 03:14:08;;;;;;;47.58;34.10;;;7.40;99.90;;;;;;5004550;28;20454;-60
2023/04/10 03:16:34;;;;;;;49.97;34.70;;;7.40;99.90;;;;;;4975514;28;20493;-61
2023/04/10 03:19:00;;;;;;;48.55;34.78;;;7.30;99.90;;;;;;5009114;28;20121;-59
2023/04/10 03:21:26;;;;;;;49.90;35.38;;;7.30;99.90;;;;;;5003644;28;20113;-58
2023/04/10 03:23:52;;;;;;;49.28;34.90;;;7.30;99.90;;;;;;4991128;28;20046;-58
2023/04/10 03:26:17;;;;;;;48.25;33.40;;;7.30;99.90;;;;;;5007313;28;20041;-59
2023/04/10 03:28:43;;;;;;;44.58;33.25;;;7.30;99.90;;;;;;5007057;28;20602;-57
2023/04/10 03:31:11;;;;;;;50.10;33.88;;;7.30;99.90;;;;;;5001978;28;20037;-60
2023/04/10 03:33:36;;;;;;;45.65;31.70;;;7.30;99.90;;;;;;5007425;28;20520;-58
2023/04/10 03:36:03;;;;;;;50.95;35.80;;;7.20;99.90;;;;;;5008861;28;20042;-59
2023/04/10 03:38:29;;;;;;;49.92;35.08;;;7.20;99.90;;;;;;5008309;28;20448;-61
2023/04/10 03:40:55;;;;;;;49.17;34.75;;;7.20;99.90;;;;;;4961525;28;20069;-59
2023/04/10 03:43:21;;;;;;;48.10;35.03;;;7.20;99.90;;;;;;5008706;28;20540;-61
2023/04/10 03:45:46;;;;;;;49.13;33.80;;;7.20;99.90;;;;;;5005712;28;20615;-59
2023/04/10 03:48:12;;;;;;;49.92;34.83;;;7.20;99.90;;;;;;5004956;28;20627;-59
2023/04/10 03:50:38;;;;;;;51.17;34.25;;;7.20;99.90;;;;;;5007549;28;20029;-60
2023/04/10 03:53:04;;;;;;;50.97;34.70;;;7.20;99.90;;;;;;4989289;28;20037;-61
2023/04/10 03:55:30;;;;;;;49.22;33.20;;;7.10;99.90;;;;;;4988166;28;20668;-61
2023/04/10 03:57:55;;;;;;;49.97;34.88;;;7.10;99.90;;;;;;4990833;28;20046;-59
2023/04/10 04:00:23;;;;;;;50.08;34.03;;;7.10;99.90;;;;;;5003508;28;20070;-60
2023/04/10 04:02:49;;;;;;;46.22;33.60;;;7.10;99.90;;;;;;5007386;28;20044;-60
2023/04/10 04:05:15;;;;;;;49.97;33.67;;;7.10;99.90;;;;;;4989146;28;20640;-59
2023/04/10 04:07:41;;;;;;;51.00;34.10;;;7.10;99.90;;;;;;5006896;28;20555;-59
2023/04/10 04:10:07;;;;;;;49.35;33.50;;;7.10;99.90;;;;;;5005038;28;20042;-58
2023/04/10 04:12:32;;;;;;;52.28;33.88;;;7.10;99.90;;;;;;5017730;28;20061;-61
2023/04/10 04:14:58;;;;;;;49.72;33.55;;;7.10;99.90;;;;;;5000393;28;20038;-59
2023/04/10 04:17:24;;;;;;;44.63;32.55;;;7.10;99.90;;;;;;4994851;28;20212;-57
2023/04/10 04:19:49;;;;;;;46.92;33.00;;;7.10;99.90;;;;;;5001971;28;20042;-59
2023/04/10 04:22:15;;;;;;;44.63;31.83;;;7.20;99.90;;;;;;5009082;28;20034;-61
2023/04/10 04:24:41;;;;;;;46.45;31.23;;;7.20;99.90;;;;;;4990559;28;20181;-61
2023/04/10 04:27:07;;;;;;;47.65;31.58;;;7.20;99.90;;;;;;5008195;28;20118;-59
2023/04/10 04:29:32;;;;;;;44.55;30.20;;;7.20;99.90;;;;;;5003177;28;20053;-57
2023/04/10 04:31:58;;;;;;;45.22;30.15;;;7.30;99.90;;;;;;5004618;28;20100;-59
2023/04/10 04:34:24;;;;;;;41.85;27.95;;;7.30;99.90;;;;;;5005241;28;20046;-62
2023/04/10 04:36:50;;;;;;;41.50;29.25;;;7.30;99.90;;;;;;5006409;28;20052;-60
2023/04/10 04:39:15;;;;;;;40.53;28.58;;;7.40;99.90;;;;;;4987197;28;20050;-57
2023/04/10 04:41:41;;;;;;;39.92;28.17;;;7.40;99.90;;;;;;5006287;28;20045;-60
2023/04/10 04:44:08;;;;;;;40.53;27.90;;;7.50;99.90;;;;;;5007708;28;20070;-60
2023/04/10 04:46:34;;;;;;;38.70;27.77;;;7.50;99.90;;;;;;5004984;28;20038;-61
2023/04/10 04:49:00;;;;;;;39.30;27.50;;;7.50;99.90;;;;;;5009186;28;20034;-60
2023/04/10 04:51:26;;;;;;;40.55;27.27;;;7.50;99.90;;;;;;5005407;28;20096;-59
2023/04/10 04:53:52;;;;;;;38.97;27.23;;;7.60;99.90;;;;;;4990362;28;20037;-59
2023/04/10 04:56:17;;;;;;;36.50;26.27;;;7.60;99.90;;;;;;5007828;28;20505;-61
2023/04/10 04:58:43;;;;;;;39.97;28.02;;;7.60;99.90;;;;;;5007938;28;20091;-60
2023/04/10 05:01:09;;;;;;;39.92;27.35;;;7.60;99.90;;;;;;5002884;28;20577;-58
2023/04/10 05:03:35;;;;;;;36.80;26.15;;;7.60;99.90;;;;;;5007865;28;20050;-59
2023/04/10 05:06:00;;;;;;;37.72;26.92;;;7.60;99.90;;;;;;5007588;28;20045;-58
2023/04/10 05:08:26;;;;;;;35.80;26.65;;;7.60;99.90;;;;;;5005414;28;20374;-60
2023/04/10 05:10:52;;;;;;;34.08;24.95;;;7.60;99.90;;;;;;5003983;28;20037;-61
2023/04/10 05:13:17;;;;;;;37.13;25.00;;;7.60;99.90;;;;;;5001509;28;20100;-58
2023/04/10 05:15:43;;;;;;;37.35;26.98;;;7.60;99.90;;;;;;5003413;28;20452;-58
2023/04/10 05:18:10;;;;;;;35.40;26.23;;;7.70;99.90;;;;;;5007118;28;20149;-58
2023/04/10 05:20:36;;;;;;;36.67;26.02;;;7.70;99.90;;;;;;5000630;28;20503;-59
2023/04/10 05:23:02;;;;;;;35.85;25.15;;;7.70;99.90;;;;;;4995028;28;20045;-58
2023/04/10 05:25:28;;;;;;;36.75;26.25;;;7.70;99.90;;;;;;4998159;28;20052;-58
2023/04/10 05:27:54;;;;;;;38.22;25.70;;;7.70;99.90;;;;;;4986936;28;20030;-58
2023/04/10 05:30:23;;;;;;;35.33;25.27;;;7.70;99.90;;;;;;4992956;28;20053;-56
2023/04/10 05:32:49;;;;;;;40.78;26.25;;;7.70;99.90;;;;;;4991758;28;20044;-59
2023/04/10 05:35:15;;;;;;;34.35;25.52;;;7.70;99.90;;;;;;5001587;28;20042;-59
2023/04/10 05:37:40;;;;;;;32.85;24.85;;;7.80;99.90;;;;;;4998382;28;20121;-59
2023/04/10 05:40:07;;;;;;;33.47;23.77;;;7.80;99.90;;;;;;4996064;28;20082;-59
2023/04/10 05:42:32;;;;;;;31.65;23.70;;;7.80;99.90;;;;;;4999999;28;20576;-58
2023/04/10 05:44:58;;;;;;;32.83;23.70;;;7.90;99.90;;;;;;5004381;28;20155;-58
2023/04/10 05:47:24;;;;;;;32.30;23.23;;;7.90;99.90;;;;;;5006692;28;20486;-57
2023/04/10 05:49:49;;;;;;;33.85;22.70;;;7.90;99.90;;;;;;4990064;28;20152;-59
2023/04/10 05:52:15;;;;;;;31.45;22.83;;;7.90;99.90;;;;;;4988562;28;20033;-58
2023/04/10 05:54:41;;;;;;;33.92;23.65;;;8.00;99.90;;;;;;5004247;28;20038;-58
2023/04/10 05:57:07;;;;;;;30.75;22.50;;;8.00;99.90;;;;;;5009728;28;20038;-58
2023/04/10 05:59:32;;;;;;;31.08;22.25;;;8.00;99.90;;;;;;5004272;28;20038;-58
2023/04/10 06:01:58;;;;;;;31.35;22.30;;;8.00;99.90;;;;;;4999642;28;20045;-59
2023/04/10 06:04:24;;;;;;;31.67;22.20;;;8.10;99.90;;;;;;5005561;28;20370;-59
2023/04/10 06:06:50;;;;;;;32.83;22.83;;;8.10;99.90;;;;;;5010752;28;20129;-59
2023/04/10 06:09:15;;;;;;;30.92;22.23;;;8.10;99.90;;;;;;5008448;28;20038;-58
2023/04/10 06:11:41;;;;;;;29.23;21.30;;;8.20;99.90;;;;;;5004807;28;20050;-58
2023/04/10 06:14:07;;;;;;;30.70;22.25;;;8.20;99.90;;;;;;5007790;28;20660;-59
2023/04/10 06:16:32;;;;;;;27.95;20.48;;;8.30;99.90;;;;;;5000353;28;20060;-58
2023/04/10 06:18:58;;;;;;;31.38;21.67;;;8.30;99.90;;;;;;5006383;28;20038;-58
2023/04/10 06:21:24;;;;;;;27.90;19.75;;;8.40;99.90;;;;;;5005987;28;20115;-58
2023/04/10 06:23:50;;;;;;;31.70;21.42;;;8.40;99.90;;;;;;5009808;28;20036;-58
2023/04/10 06:26:16;;;;;;;30.15;21.08;;;8.40;99.90;;;;;;4998412;28;20046;-57
2023/04/10 06:28:41;;;;;;;27.17;20.52;;;8.50;99.90;;;;;;5005733;28;20096;-58
2023/04/10 06:31:07;;;;;;;30.52;20.10;;;8.60;99.90;;;;;;4986327;28;20033;-58
2023/04/10 06:33:36;;;;;;;30.55;19.92;;;8.70;99.90;;;;;;5005374;28;20096;-58
2023/04/10 06:36:02;;;;;;;25.98;19.20;;;8.80;99.90;;;;;;5008632;28;20555;-59
2023/04/10 06:38:29;;;;;;;26.85;19.63;;;8.80;99.90;;;;;;5004690;28;20069;-58
2023/04/10 06:40:54;;;;;;;26.65;18.67;;;8.90;99.90;;;;;;5001740;28;20092;-57
2023/04/10 06:43:20;;;;;;;26.05;18.13;;;8.90;99.90;;;;;;5000716;28;20042;-59
2023/04/10 06:45:46;;;;;;;24.95;17.98;;;8.90;99.90;;;;;;5001325;28;20043;-57
2023/04/10 06:48:12;;;;;;;25.55;18.08;;;9.00;99.90;;;;;;5004081;28;20076;-58
2023/04/10 06:50:37;;;;;;;24.98;18.10;;;9.10;99.90;;;;;;5000488;28;20065;-58
2023/04/10 06:53:03;;;;;;;23.20;16.80;;;9.20;99.90;;;;;;4998214;28;20141;-58
2023/04/10 06:55:29;;;;;;;27.00;16.90;;;9.30;99.90;;;;;;4974469;28;20053;-58
2023/04/10 06:57:55;;;;;;;20.85;16.10;;;9.40;99.90;;;;;;4994987;28;20046;-58
2023/04/10 07:00:22;;;;;;;25.42;17.00;;;9.50;99.90;;;;;;4994802;28;20037;-58
2023/04/10 07:02:48;;;;;;;24.83;17.25;;;9.60;99.90;;;;;;4991729;28;20045;-58
2023/04/10 07:05:14;;;;;;;22.38;16.10;;;9.80;99.90;;;;;;4976052;28;20049;-58
2023/04/10 07:07:41;;;;;;;23.08;16.13;;;9.90;99.90;;;;;;5007430;28;20129;-58
2023/04/10 07:10:07;;;;;;;23.20;16.40;;;10.00;99.90;;;;;;4993660;28;20042;-58
2023/04/10 07:12:33;;;;;;;25.05;16.30;;;10.10;99.90;;;;;;5000387;28;20540;-58
2023/04/10 07:14:59;;;;;;;22.58;16.40;;;10.20;99.90;;;;;;5005210;28;20184;-59
2023/04/10 07:17:25;;;;;;;20.90;16.48;;;10.30;99.90;;;;;;5003728;28;20034;-58
2023/04/10 07:19:51;;;;;;;24.40;16.27;;;10.50;99.90;;;;;;5004266;28;20044;-58
2023/04/10 07:22:16;;;;;;;21.85;16.10;;;10.60;99.90;;;;;;5000506;28;20033;-58
2023/04/10 07:24:43;;;;;;;24.25;16.85;;;10.80;99.90;;;;;;4997363;28;20496;-57
2023/04/10 07:27:08;;;;;;;22.15;17.40;;;10.90;99.90;;;;;;4986582;28;20053;-58
2023/04/10 07:29:34;;;;;;;22.73;15.77;;;11.00;99.90;;;;;;5005187;28;20041;-58
2023/04/10 07:32:00;;;;;;;22.30;15.45;;;11.10;99.90;;;;;;5001602;28;20371;-56
2023/04/10 07:34:26;;;;;;;21.55;15.77;;;11.30;99.90;;;;;;5003835;28;20034;-58
2023/04/10 07:36:52;;;;;;;22.90;16.25;;;11.30;99.90;;;;;;5006138;28;20041;-58
2023/04/10 07:39:17;;;;;;;20.67;15.95;;;11.30;99.90;;;;;;4994017;28;20447;-58
2023/04/10 07:41:43;;;;;;;21.60;15.45;;;11.40;99.90;;;;;;4999435;28;20038;-58
2023/04/10 07:44:10;;;;;;;21.98;15.85;;;11.40;99.90;;;;;;4998830;28;20037;-58
2023/04/10 07:46:36;;;;;;;23.25;16.42;;;11.50;99.90;;;;;;4982844;28;20083;-58
2023/04/10 07:49:02;;;;;;;22.10;16.48;;;11.50;99.90;;;;;;5004721;28;20536;-58
2023/04/10 07:51:28;;;;;;;21.95;15.05;;;11.50;99.90;;;;;;5003398;28;20058;-58
2023/04/10 07:53:54;;;;;;;20.90;15.20;;;11.60;99.90;;;;;;5003884;28;20083;-58
2023/04/10 07:56:20;;;;;;;20.00;14.65;;;11.60;99.90;;;;;;5001151;28;20092;-58
2023/04/10 07:58:46;;;;;;;20.10;16.08;;;11.70;99.90;;;;;;5003436;28;20042;-58
2023/04/10 08:01:12;;;;;;;20.40;16.35;;;11.80;99.90;;;;;;5001192;28;20038;-58
2023/04/10 08:03:43;;;;;;;21.42;14.70;;;11.90;99.90;;;;;;5003100;28;20038;-57
2023/04/10 08:06:10;;;;;;;21.00;15.68;;;11.90;99.90;;;;;;5003981;28;20164;-57
2023/04/10 08:08:36;;;;;;;20.35;15.25;;;12.00;99.90;;;;;;5001170;28;20598;-57
2023/04/10 08:11:06;;;;;;;21.00;15.68;;;12.00;99.90;;;;;;4999623;28;20173;-58
2023/04/10 08:13:32;;;;;;;22.98;15.10;;;12.10;99.90;;;;;;5001589;28;20045;-58
2023/04/10 08:15:57;;;;;;;19.52;15.30;;;12.30;99.90;;;;;;5004152;28;20053;-57
2023/04/10 08:18:23;;;;;;;18.48;14.02;;;12.30;99.90;;;;;;4999512;28;20103;-57
2023/04/10 08:20:49;;;;;;;17.92;14.13;;;12.40;99.90;;;;;;5003534;28;20543;-58
2023/04/10 08:23:14;;;;;;;19.38;14.88;;;12.50;99.90;;;;;;5006386;28;20087;-58
2023/04/10 08:25:40;;;;;;;18.73;13.85;;;12.50;99.90;;;;;;5001315;28;20053;-56
2023/04/10 08:28:06;;;;;;;19.20;13.95;;;12.60;99.90;;;;;;5003363;28;20691;-58
2023/04/10 08:30:31;;;;;;;21.48;15.07;;;12.70;99.90;;;;;;4996573;28;20153;-58
2023/04/10 08:32:57;;;;;;;18.25;14.52;;;12.70;99.90;;;;;;4998915;28;20041;-58
2023/04/10 08:35:23;;;;;;;19.38;14.07;;;12.80;99.90;;;;;;4981766;28;20136;-58
2023/04/10 08:37:48;;;;;;;17.70;13.18;;;12.80;99.90;;;;;;5001795;28;20095;-57
2023/04/10 08:40:14;;;;;;;17.40;14.18;;;12.80;99.90;;;;;;5003901;28;20038;-57
2023/04/10 08:42:40;;;;;;;19.13;14.07;;;12.80;99.90;;;;;;5003143;28;20037;-55
2023/04/10 08:45:07;;;;;;;17.85;14.07;;;12.90;99.90;;;;;;4997271;28;21742;-56
2023/04/10 08:47:36;;;;;;;17.85;14.00;;;13.10;99.90;;;;;;4996475;28;20045;-58
2023/04/10 08:50:09;;;;;;;17.98;13.38;;;13.20;99.90;;;;;;5003923;28;20623;-58
2023/04/10 08:52:38;;;;;;;17.90;14.02;;;13.30;99.90;;;;;;5003174;28;20528;-58
2023/04/10 08:55:08;;;;;;;17.25;13.02;;;13.40;99.70;;;;;;5004782;28;20038;-58
2023/04/10 08:57:36;;;;;;;15.90;12.30;;;13.50;99.70;;;;;;5001906;28;20097;-58
2023/04/10 09:00:03;;;;;;;16.63;12.32;;;13.50;99.40;;;;;;5002966;28;20096;-56
2023/04/10 09:02:28;;;;;;;15.73;12.07;;;13.50;99.50;;;;;;5000578;28;20038;-57
2023/04/10 09:04:57;;;;;;;15.57;11.68;;;13.50;99.20;;;;;;5003409;28;20068;-57
2023/04/10 09:07:23;;;;;;;13.77;11.70;;;13.40;99.40;;;;;;4999785;28;20038;-58
2023/04/10 09:09:49;;;;;;;15.32;11.05;;;13.40;99.20;;;;;;5004231;28;20528;-57
2023/04/10 09:12:15;;;;;;;18.25;12.57;;;13.40;99.00;;;;;;5007146;28;20046;-58
2023/04/10 09:14:41;;;;;;;18.13;13.02;;;13.40;98.90;;;;;;5002405;28;20068;-58
2023/04/10 09:17:17;;;;;;;15.68;12.68;;;13.40;98.80;;;;;;5002727;28;20410;-58
2023/04/10 09:19:45;;;;;;;15.30;11.93;;;13.40;98.90;;;;;;5005065;28;20615;-60
2023/04/10 09:22:11;;;;;;;17.42;12.15;;;13.50;99.00;;;;;;5012357;28;20492;-58
2023/04/10 09:24:43;;;;;;;15.75;12.35;;;13.60;99.20;;;;;;5003434;28;20446;-57
2023/04/10 09:27:10;;;;;;;15.45;12.20;;;13.50;99.00;;;;;;5004930;28;20807;-58
2023/04/10 09:29:41;;;;;;;14.55;11.38;;;13.60;99.20;;;;;;5006321;28;20073;-58
2023/04/10 09:32:07;;;;;;;14.98;11.43;;;13.70;99.20;;;;;;5001587;28;20045;-56
2023/04/10 09:34:33;;;;;;;14.57;11.73;;;13.70;99.10;;;;;;5006821;28;20804;-58
2023/04/10 09:37:02;;;;;;;14.00;11.45;;;13.70;98.80;;;;;;5001810;28;20066;-58
2023/04/10 09:39:39;;;;;;;14.43;11.57;;;13.80;99.10;;;;;;5004862;28;20150;-58
2023/04/10 09:42:06;;;;;;;14.52;10.82;;;13.90;99.30;;;;;;5006147;28;20046;-58
2023/04/10 09:44:33;;;;;;;13.35;10.23;;;14.00;99.10;;;;;;5001671;28;20034;-58
2023/04/10 09:47:18;;;;;;;18.35;11.70;;;14.10;98.60;;;;;;5004463;28;20057;-58
2023/04/10 09:49:47;;;;;;;13.98;10.32;;;14.10;98.30;;;;;;5006379;28;20124;-58
2023/04/10 09:52:18;;;;;;;15.70;11.27;;;14.10;98.20;;;;;;5004828;28;20074;-58
2023/04/10 09:54:44;;;;;;;14.38;11.10;;;14.20;98.50;;;;;;5001364;28;20045;-58
2023/04/10 09:57:15;;;;;;;12.57;10.13;;;14.10;98.20;;;;;;5002550;28;20417;-58
2023/04/10 09:59:43;;;;;;;14.35;10.65;;;14.20;98.60;;;;;;5004164;28;20237;-58
2023/04/10 10:02:10;;;;;;;16.23;11.35;;;14.20;98.60;;;;;;4992266;28;20041;-58
2023/04/10 10:04:37;;;;;;;12.82;10.65;;;14.20;98.60;;;;;;5009170;28;20042;-58
2023/04/10 10:07:03;;;;;;;12.45;10.40;;;14.10;98.80;;;;;;4991676;28;20141;-58
2023/04/10 10:09:30;;;;;;;12.30;10.00;;;14.10;98.70;;;;;;5008736;28;20524;-58
2023/04/10 10:11:57;;;;;;;12.70;10.55;;;14.10;98.10;;;;;;4991239;28;20038;-58
2023/04/10 10:14:26;;;;;;;13.32;10.52;;;14.00;98.20;;;;;;5012729;28;20053;-58
2023/04/10 10:16:56;;;;;;;14.30;10.75;;;14.10;98.30;;;;;;5009966;28;20038;-58
2023/04/10 10:19:25;;;;;;;12.45;10.38;;;14.10;98.20;;;;;;4990251;28;20049;-58
2023/04/10 10:21:53;;;;;;;20.67;10.52;;;14.00;98.00;;;;;;5005834;28;20042;-58
2023/04/10 10:24:20;;;;;;;14.23;10.82;;;14.00;98.10;;;;;;5010207;28;20045;-58
2023/04/10 10:26:47;;;;;;;13.18;9.95;;;14.00;98.30;;;;;;5005388;28;20046;-58
2023/04/10 10:29:16;;;;;;;12.52;10.43;;;14.10;98.40;;;;;;5007909;28;20042;-58
2023/04/10 10:31:42;;;;;;;13.15;10.63;;;14.10;98.60;;;;;;5000651;28;20046;-57
2023/04/10 10:34:08;;;;;;;13.77;10.63;;;14.30;98.40;;;;;;5010225;28;20040;-58
2023/04/10 10:36:39;;;;;;;12.98;10.30;;;14.30;97.80;;;;;;4985331;28;20048;-58
2023/04/10 10:39:24;;;;;;;13.02;10.30;;;14.30;98.10;;;;;;5008299;28;20038;-58
2023/04/10 10:42:09;;;;;;;13.82;9.15;;;14.40;97.90;;;;;;5001558;28;20056;-58
2023/04/10 10:45:01;;;;;;;12.25;9.60;;;14.50;97.80;;;;;;5008057;28;20168;-58
2023/04/10 10:47:29;;;;;;;14.48;10.38;;;14.50;97.50;;;;;;5002920;28;20042;-58
2023/04/10 10:50:02;;;;;;;11.38;9.32;;;14.40;96.90;;;;;;5003060;28;20068;-57
2023/04/10 10:52:48;;;;;;;12.85;9.80;;;14.40;97.20;;;;;;4998914;28;20041;-57
2023/04/10 10:55:23;;;;;;;13.60;10.23;;;14.40;97.20;;;;;;5002901;28;20042;-58
2023/04/10 10:57:54;;;;;;;13.35;10.80;;;14.40;97.20;;;;;;5000247;28;20070;-58
2023/04/10 11:00:21;;;;;;;13.85;9.90;;;14.40;97.40;;;;;;4997692;28;20077;-58
2023/04/10 11:03:12;;;;;;;12.50;9.57;;;14.50;97.40;;;;;;5001784;28;20038;-58
2023/04/10 11:05:59;;;;;;;12.52;10.20;;;14.40;96.50;;;;;;5003080;28;20057;-58
2023/04/10 11:08:43;;;;;;;11.27;9.35;;;14.40;97.20;;;;;;4998964;28;20057;-57
2023/04/10 11:11:22;;;;;;;12.77;10.73;;;14.50;97.70;;;;;;4994987;28;20045;-57
2023/04/10 11:13:56;;;;;;;11.75;9.70;;;14.50;97.80;;;;;;4996216;28;20042;-58
2023/04/10 11:16:30;;;;;;;10.55;9.02;;;14.50;97.70;;;;;;4997528;28;20045;-57
2023/04/10 11:19:07;;;;;;;11.77;9.05;;;14.60;97.40;;;;;;4995238;28;20061;-59
2023/04/10 11:21:34;;;;;;;13.20;10.15;;;14.60;96.80;;;;;;4999906;28;20057;-58
2023/04/10 11:24:01;;;;;;;13.52;9.93;;;14.60;97.10;;;;;;5003044;28;20050;-58
2023/04/10 11:26:40;;;;;;;10.98;8.50;;;14.60;97.10;;;;;;5003234;28;20049;-57
2023/04/10 11:29:14;;;;;;;12.98;9.23;;;14.70;97.00;;;;;;5002861;28;20254;-58
2023/04/10 11:31:42;;;;;;;13.05;9.90;;;14.80;96.70;;;;;;5002119;28;20124;-57
2023/04/10 11:34:11;;;;;;;11.07;9.40;;;15.00;96.80;;;;;;5004634;28;20523;-56
2023/04/10 11:36:42;;;;;;;11.05;8.75;;;15.20;96.70;;;;;;4994387;28;20034;-57
2023/04/10 11:39:12;;;;;;;13.02;9.75;;;15.30;96.80;;;;;;5015792;28;20053;-56
2023/04/10 11:41:43;;;;;;;11.45;9.73;;;15.50;96.80;;;;;;4993302;28;20054;-57
2023/04/10 11:44:12;;;;;;;11.77;8.55;;;15.60;96.10;;;;;;5003809;28;20041;-58
2023/04/10 11:46:41;;;;;;;11.70;9.02;;;15.60;96.00;;;;;;5001265;28;20049;-58
2023/04/10 11:49:09;;;;;;;10.52;8.68;;;15.70;96.20;;;;;;4981214;28;20034;-60
2023/04/10 11:51:35;;;;;;;12.63;9.75;;;15.70;95.40;;;;;;4998085;28;20409;-57
2023/04/10 11:54:11;;;;;;;11.73;9.57;;;15.80;95.60;;;;;;5002747;28;20046;-56
2023/04/10 11:56:38;;;;;;;15.40;9.68;;;15.90;95.50;;;;;;5001811;28;20041;-58
2023/04/10 11:59:18;;;;;;;11.30;9.60;;;15.80;95.30;;;;;;4998801;28;20046;-56
2023/04/10 12:01:44;;;;;;;10.50;8.57;;;15.70;95.40;;;;;;5003321;28;20049;-57
2023/04/10 12:04:17;;;;;;;11.20;8.98;;;15.70;95.30;;;;;;5002105;28;20124;-55
2023/04/10 12:06:48;;;;;;;9.55;7.88;;;15.70;95.50;;;;;;4996372;28;20049;-57
2023/04/10 12:09:16;;;;;;;9.82;8.02;;;15.60;95.40;;;;;;5001611;28;20042;-58
2023/04/10 12:11:54;;;;;;;9.13;8.02;;;15.50;95.20;;;;;;5004002;28;20037;-59
2023/04/10 12:14:22;;;;;;;10.88;8.65;;;15.50;95.70;;;;;;4999462;28;20034;-59
2023/04/10 12:16:49;;;;;;;12.40;8.48;;;15.50;96.00;;;;;;4988113;28;20034;-56
2023/04/10 12:19:16;;;;;;;9.55;8.45;;;15.40;95.90;;;;;;5002288;28;20559;-57
2023/04/10 12:21:44;;;;;;;10.45;7.82;;;15.40;96.00;;;;;;5002417;28;20485;-55
2023/04/10 12:24:10;;;;;;;7.97;6.97;;;15.40;95.80;;;;;;5007684;28;20050;-59
2023/04/10 12:26:36;;;;;;;10.90;8.90;;;15.30;95.50;;;;;;5004730;28;20462;-58
2023/04/10 12:29:02;;;;;;;12.52;9.43;;;15.30;95.80;;;;;;4993755;28;20121;-57
2023/04/10 12:31:35;;;;;;;9.93;8.18;;;15.20;95.80;;;;;;5001518;28;20146;-58
2023/04/10 12:34:04;;;;;;;11.13;8.48;;;15.10;96.10;;;;;;4999612;28;20112;-57
2023/04/10 12:36:32;;;;;;;10.25;8.02;;;15.10;96.20;;;;;;5001819;28;20092;-58
2023/04/10 12:39:02;;;;;;;10.25;8.38;;;15.00;96.40;;;;;;5002183;28;20057;-57